sensor_id;sensor_type;location;lat;lon;timestamp;pressure;altitude;pressure_sealevel;temperature;humidity
49515;BME280;35415;47.870;16.058;2022-08-20T00:01:40;96982.94;;;20.80;76.81
49515;BME280;35415;47.870;16.058;2022-08-20T00:04:07;96982.50;;;20.78;77.19
49515;BME280;35415;47.870;16.058;2022-08-20T00:06:36;96986.72;;;20.75;76.78
49515;BME280;35415;47.870;16.058;2022-08-20T00:09:05;96979.53;;;20.70;77.35
49515;BME280;35415;47.870;16.058;2022-08-20T00:11:33;96991.94;;;20.68;77.39
49515;BME280;35415;47.870;16.058;2022-08-20T00:14:03;96984.41;;;20.65;77.28
49515;BME280;35415;47.870;16.058;2022-08-20T00:16:34;96985.88;;;20.62;77.41
49515;BME280;35415;47.870;16.058;2022-08-20T00:19:04;96990.91;;;20.60;77.56
49515;BME280;35415;47.870;16.058;2022-08-20T00:21:32;96977.81;;;20.54;78.21
49515;BME280;35415;47.870;16.058;2022-08-20T00:24:02;96987.94;;;20.53;77.47
49515;BME280;35415;47.870;16.058;2022-08-20T00:26:29;96986.00;;;20.54;77.76
49515;BME280;35415;47.870;16.058;2022-08-20T00:28:57;96986.69;;;20.51;77.73
49515;BME280;35415;47.870;16.058;2022-08-20T00:31:24;96983.16;;;20.50;77.45
49515;BME280;35415;47.870;16.058;2022-08-20T00:33:51;96984.28;;;20.49;77.52
49515;BME280;35415;47.870;16.058;2022-08-20T00:36:19;96982.34;;;20.50;77.23
49515;BME280;35415;47.870;16.058;2022-08-20T00:38:48;96974.16;;;20.50;77.17
49515;BME280;35415;47.870;16.058;2022-08-20T00:41:19;96964.03;;;20.50;76.84
49515;BME280;35415;47.870;16.058;2022-08-20T00:43:49;96958.88;;;20.49;76.98
49515;BME280;35415;47.870;16.058;2022-08-20T00:46:19;96919.78;;;20.24;77.15
49515;BME280;35415;47.870;16.058;2022-08-20T00:48:50;96955.84;;;20.50;77.03
49515;BME280;35415;47.870;16.058;2022-08-20T00:51:24;96953.91;;;20.51;76.99
49515;BME280;35415;47.870;16.058;2022-08-20T00:53:54;96953.41;;;20.49;77.54
49515;BME280;35415;47.870;16.058;2022-08-20T00:56:23;96948.63;;;20.46;77.39
49515;BME280;35415;47.870;16.058;2022-08-20T00:58:51;96949.09;;;20.48;77.03
49515;BME280;35415;47.870;16.058;2022-08-20T01:01:19;96943.16;;;20.46;77.15
49515;BME280;35415;47.870;16.058;2022-08-20T01:03:47;96932.13;;;20.42;77.20
49515;BME280;35415;47.870;16.058;2022-08-20T01:06:14;96940.09;;;20.47;77.74
49515;BME280;35415;47.870;16.058;2022-08-20T01:08:41;96942.03;;;20.47;77.57
49515;BME280;35415;47.870;16.058;2022-08-20T01:11:09;96922.91;;;20.47;77.76
49515;BME280;35415;47.870;16.058;2022-08-20T01:13:42;96912.69;;;20.56;75.68
49515;BME280;35415;47.870;16.058;2022-08-20T01:16:17;96916.31;;;20.48;77.07
49515;BME280;35415;47.870;16.058;2022-08-20T01:18:46;96901.75;;;20.43;77.01
49515;BME280;35415;47.870;16.058;2022-08-20T01:21:16;96909.94;;;20.43;77.15
49515;BME280;35415;47.870;16.058;2022-08-20T01:23:54;96909.13;;;20.43;76.97
49515;BME280;35415;47.870;16.058;2022-08-20T01:26:28;96908.88;;;20.36;77.50
49515;BME280;35415;47.870;16.058;2022-08-20T01:29:00;96910.81;;;20.35;77.47
49515;BME280;35415;47.870;16.058;2022-08-20T01:31:30;96920.72;;;20.40;77.22
49515;BME280;35415;47.870;16.058;2022-08-20T01:33:59;96876.66;;;20.17;77.26
49515;BME280;35415;47.870;16.058;2022-08-20T01:36:29;96897.97;;;20.36;77.37
49515;BME280;35415;47.870;16.058;2022-08-20T01:38:56;96894.78;;;20.34;77.53
49515;BME280;35415;47.870;16.058;2022-08-20T01:41:46;96894.09;;;20.37;76.81
49515;BME280;35415;47.870;16.058;2022-08-20T01:44:18;96902.97;;;20.34;76.99
49515;BME280;35415;47.870;16.058;2022-08-20T01:46:47;96905.22;;;20.32;77.06
49515;BME280;35415;47.870;16.058;2022-08-20T01:49:17;96894.97;;;20.29;76.62
49515;BME280;35415;47.870;16.058;2022-08-20T01:51:45;96871.53;;;20.16;77.39
49515;BME280;35415;47.870;16.058;2022-08-20T01:54:14;96875.84;;;20.17;76.78
49515;BME280;35415;47.870;16.058;2022-08-20T01:56:53;96871.03;;;20.13;76.44
49515;BME280;35415;47.870;16.058;2022-08-20T01:59:20;96894.06;;;20.25;76.93
49515;BME280;35415;47.870;16.058;2022-08-20T02:01:48;96896.00;;;20.24;76.31
49515;BME280;35415;47.870;16.058;2022-08-20T02:04:16;96899.06;;;20.23;76.20
49515;BME280;35415;47.870;16.058;2022-08-20T02:06:46;96896.69;;;20.21;76.11
49515;BME280;35415;47.870;16.058;2022-08-20T02:09:14;96881.97;;;20.13;75.98
49515;BME280;35415;47.870;16.058;2022-08-20T02:11:41;96895.75;;;20.17;75.91
49515;BME280;35415;47.870;16.058;2022-08-20T02:14:12;96901.69;;;20.19;75.62
49515;BME280;35415;47.870;16.058;2022-08-20T02:16:43;96894.28;;;20.20;75.65
49515;BME280;35415;47.870;16.058;2022-08-20T02:19:14;96899.75;;;20.20;75.38
49515;BME280;35415;47.870;16.058;2022-08-20T02:21:47;96899.28;;;20.18;75.00
49515;BME280;35415;47.870;16.058;2022-08-20T02:24:15;96892.25;;;20.17;75.10
49515;BME280;35415;47.870;16.058;2022-08-20T02:26:42;96889.38;;;20.13;74.56
49515;BME280;35415;47.870;16.058;2022-08-20T02:29:12;96893.38;;;20.16;74.71
49515;BME280;35415;47.870;16.058;2022-08-20T02:31:41;96874.78;;;20.09;75.18
49515;BME280;35415;47.870;16.058;2022-08-20T02:34:12;96866.16;;;20.07;74.96
49515;BME280;35415;47.870;16.058;2022-08-20T02:36:40;96871.38;;;20.12;74.92
49515;BME280;35415;47.870;16.058;2022-08-20T02:39:10;96869.22;;;20.05;74.68
49515;BME280;35415;47.870;16.058;2022-08-20T02:41:38;96877.19;;;20.10;74.65
49515;BME280;35415;47.870;16.058;2022-08-20T02:44:06;96869.69;;;20.07;74.02
49515;BME280;35415;47.870;16.058;2022-08-20T02:46:35;96870.47;;;20.08;74.04
49515;BME280;35415;47.870;16.058;2022-08-20T02:49:02;96864.78;;;20.01;74.05
49515;BME280;35415;47.870;16.058;2022-08-20T02:51:30;96874.69;;;20.05;73.55
49515;BME280;35415;47.870;16.058;2022-08-20T02:53:57;96879.34;;;20.05;73.55
49515;BME280;35415;47.870;16.058;2022-08-20T02:56:25;96882.41;;;20.03;72.94
49515;BME280;35415;47.870;16.058;2022-08-20T02:58:53;96881.28;;;20.04;72.91
49515;BME280;35415;47.870;16.058;2022-08-20T03:01:20;96872.63;;;20.02;72.73
49515;BME280;35415;47.870;16.058;2022-08-20T03:03:48;96871.84;;;20.02;72.36
49515;BME280;35415;47.870;16.058;2022-08-20T03:06:15;96877.31;;;20.02;72.05
49515;BME280;35415;47.870;16.058;2022-08-20T03:08:43;96882.41;;;20.03;71.30
49515;BME280;35415;47.870;16.058;2022-08-20T03:11:10;96876.50;;;20.01;70.99
49515;BME280;35415;47.870;16.058;2022-08-20T03:13:38;96881.16;;;20.01;70.99
49515;BME280;35415;47.870;16.058;2022-08-20T03:16:06;96870.78;;;19.94;71.02
49515;BME280;35415;47.870;16.058;2022-08-20T03:18:36;96864.53;;;19.94;70.76
49515;BME280;35415;47.870;16.058;2022-08-20T03:21:07;96871.38;;;20.00;70.66
49515;BME280;35415;47.870;16.058;2022-08-20T03:23:35;96872.19;;;20.00;70.33
49515;BME280;35415;47.870;16.058;2022-08-20T03:26:04;96878.09;;;20.02;70.31
49515;BME280;35415;47.870;16.058;2022-08-20T03:28:31;96880.16;;;20.05;70.18
49515;BME280;35415;47.870;16.058;2022-08-20T03:30:59;96884.34;;;20.03;70.59
49515;BME280;35415;47.870;16.058;2022-08-20T03:33:27;96873.97;;;19.96;69.88
49515;BME280;35415;47.870;16.058;2022-08-20T03:35:56;96885.81;;;20.00;69.67
49515;BME280;35415;47.870;16.058;2022-08-20T03:38:25;96893.69;;;20.02;70.09
49515;BME280;35415;47.870;16.058;2022-08-20T03:40:52;96890.16;;;20.01;69.77
49515;BME280;35415;47.870;16.058;2022-08-20T03:43:19;96888.56;;;20.00;69.89
49515;BME280;35415;47.870;16.058;2022-08-20T03:45:46;96885.34;;;19.98;69.70
49515;BME280;35415;47.870;16.058;2022-08-20T03:48:16;96889.34;;;20.01;69.92
49515;BME280;35415;47.870;16.058;2022-08-20T03:50:44;96888.56;;;20.00;69.75
49515;BME280;35415;47.870;16.058;2022-08-20T03:53:12;96892.72;;;19.98;69.95
49515;BME280;35415;47.870;16.058;2022-08-20T03:55:43;96874.19;;;19.91;70.17
49515;BME280;35415;47.870;16.058;2022-08-20T03:58:12;96876.25;;;19.94;69.66
49515;BME280;35415;47.870;16.058;2022-08-20T04:00:41;96892.28;;;19.96;69.63
49515;BME280;35415;47.870;16.058;2022-08-20T04:03:09;96887.97;;;19.95;69.34
49515;BME280;35415;47.870;16.058;2022-08-20T04:05:38;96892.63;;;19.94;69.58
49515;BME280;35415;47.870;16.058;2022-08-20T04:08:08;96886.81;;;19.96;69.69
49515;BME280;35415;47.870;16.058;2022-08-20T04:10:36;96874.19;;;19.91;69.64
49515;BME280;35415;47.870;16.058;2022-08-20T04:13:05;96877.94;;;19.87;69.97
49515;BME280;35415;47.870;16.058;2022-08-20T04:15:33;96873.69;;;19.77;69.57
49515;BME280;35415;47.870;16.058;2022-08-20T04:18:02;96894.88;;;19.92;69.76
49515;BME280;35415;47.870;16.058;2022-08-20T04:20:33;96899.09;;;19.90;70.35
49515;BME280;35415;47.870;16.058;2022-08-20T04:23:00;96888.06;;;19.86;70.26
49515;BME280;35415;47.870;16.058;2022-08-20T04:25:28;96894.66;;;19.85;70.10
49515;BME280;35415;47.870;16.058;2022-08-20T04:27:57;96899.31;;;19.85;70.40
49515;BME280;35415;47.870;16.058;2022-08-20T04:30:26;96888.75;;;19.83;70.05
49515;BME280;35415;47.870;16.058;2022-08-20T04:32:54;96901.59;;;19.82;70.20
49515;BME280;35415;47.870;16.058;2022-08-20T04:35:22;96898.72;;;19.79;69.95
49515;BME280;35415;47.870;16.058;2022-08-20T04:37:57;96902.69;;;19.81;70.27
49515;BME280;35415;47.870;16.058;2022-08-20T04:40:24;96889.03;;;19.69;70.28
49515;BME280;35415;47.870;16.058;2022-08-20T04:43:09;96889.38;;;19.80;70.30
49515;BME280;35415;47.870;16.058;2022-08-20T04:45:38;96898.72;;;19.79;70.42
49515;BME280;35415;47.870;16.058;2022-08-20T04:48:05;96891.41;;;19.71;70.40
49515;BME280;35415;47.870;16.058;2022-08-20T04:50:34;96904.63;;;19.81;70.49
49515;BME280;35415;47.870;16.058;2022-08-20T04:53:02;96891.66;;;19.78;70.67
49515;BME280;35415;47.870;16.058;2022-08-20T04:55:29;96901.59;;;19.82;70.64
49515;BME280;35415;47.870;16.058;2022-08-20T04:58:02;96901.69;;;19.86;70.47
49515;BME280;35415;47.870;16.058;2022-08-20T05:00:30;96912.28;;;19.88;70.13
49515;BME280;35415;47.870;16.058;2022-08-20T05:02:58;96906.81;;;19.88;70.10
49515;BME280;35415;47.870;16.058;2022-08-20T05:05:26;96902.28;;;19.92;69.82
49515;BME280;35415;47.870;16.058;2022-08-20T05:07:55;96897.16;;;19.90;69.82
49515;BME280;35415;47.870;16.058;2022-08-20T05:10:23;96908.66;;;19.96;69.97
49515;BME280;35415;47.870;16.058;2022-08-20T05:12:51;96905.59;;;19.97;69.74
49515;BME280;35415;47.870;16.058;2022-08-20T05:15:19;96902.53;;;19.99;69.72
49515;BME280;35415;47.870;16.058;2022-08-20T05:17:46;96909.25;;;20.01;69.55
49515;BME280;35415;47.870;16.058;2022-08-20T05:20:17;96911.66;;;20.03;69.55
49515;BME280;35415;47.870;16.058;2022-08-20T05:22:44;96914.03;;;20.04;69.25
49515;BME280;35415;47.870;16.058;2022-08-20T05:25:12;96907.91;;;20.07;68.96
49515;BME280;35415;47.870;16.058;2022-08-20T05:27:39;96914.63;;;20.10;68.67
49515;BME280;35415;47.870;16.058;2022-08-20T05:30:09;96912.22;;;20.08;68.94
49515;BME280;35415;47.870;16.058;2022-08-20T05:32:37;96915.88;;;20.12;68.91
49515;BME280;35415;47.870;16.058;2022-08-20T05:35:07;96910.56;;;20.16;68.88
49515;BME280;35415;47.870;16.058;2022-08-20T05:37:38;96910.22;;;20.18;68.82
49515;BME280;35415;47.870;16.058;2022-08-20T05:40:10;96911.47;;;20.20;68.76
49515;BME280;35415;47.870;16.058;2022-08-20T05:42:39;96909.66;;;20.24;68.45
49515;BME280;35415;47.870;16.058;2022-08-20T05:45:07;96906.22;;;20.27;68.33
49515;BME280;35415;47.870;16.058;2022-08-20T05:47:38;96900.88;;;20.31;68.06
49515;BME280;35415;47.870;16.058;2022-08-20T05:50:06;96876.66;;;20.17;67.83
49515;BME280;35415;47.870;16.058;2022-08-20T05:52:33;96899.88;;;20.35;67.51
49515;BME280;35415;47.870;16.058;2022-08-20T05:55:03;96895.13;;;20.32;67.14
49515;BME280;35415;47.870;16.058;2022-08-20T05:57:30;96897.41;;;20.42;67.19
49515;BME280;35415;47.870;16.058;2022-08-20T05:59:59;96904.13;;;20.45;66.73
49515;BME280;35415;47.870;16.058;2022-08-20T06:02:27;96899.91;;;20.48;67.06
49515;BME280;35415;47.870;16.058;2022-08-20T06:05:11;96909.03;;;20.52;67.16
49515;BME280;35415;47.870;16.058;2022-08-20T06:07:38;96913.47;;;20.56;66.93
49515;BME280;35415;47.870;16.058;2022-08-20T06:10:08;96909.59;;;20.57;66.71
49515;BME280;35415;47.870;16.058;2022-08-20T06:12:35;96927.03;;;20.65;66.38
49515;BME280;35415;47.870;16.058;2022-08-20T06:15:03;96916.44;;;20.63;66.18
49515;BME280;35415;47.870;16.058;2022-08-20T06:17:30;96920.56;;;20.69;66.37
49515;BME280;35415;47.870;16.058;2022-08-20T06:20:01;96929.19;;;20.71;66.35
49515;BME280;35415;47.870;16.058;2022-08-20T06:22:29;96941.59;;;20.81;65.72
49515;BME280;35415;47.870;16.058;2022-08-20T06:24:56;96939.91;;;20.89;65.96
49515;BME280;35415;47.870;16.058;2022-08-20T06:27:25;96944.81;;;20.95;65.59
49515;BME280;35415;47.870;16.058;2022-08-20T06:29:52;96941.06;;;21.00;65.29
49515;BME280;35415;47.870;16.058;2022-08-20T06:32:21;96943.91;;;21.03;64.96
49515;BME280;35415;47.870;16.058;2022-08-20T06:34:49;96935.91;;;21.11;64.97
49515;BME280;35415;47.870;16.058;2022-08-20T06:37:19;96935.66;;;21.16;64.26
49515;BME280;35415;47.870;16.058;2022-08-20T06:39:46;96936.59;;;21.20;64.32
49515;BME280;35415;47.870;16.058;2022-08-20T06:42:13;96928.50;;;21.23;64.03
49515;BME280;35415;47.870;16.058;2022-08-20T06:44:41;96927.38;;;21.24;64.64
49515;BME280;35415;47.870;16.058;2022-08-20T06:47:15;96941.84;;;21.37;63.79
49515;BME280;35415;47.870;16.058;2022-08-20T06:49:43;96940.00;;;21.41;63.66
49515;BME280;35415;47.870;16.058;2022-08-20T06:52:11;96933.03;;;21.44;63.78
49515;BME280;35415;47.870;16.058;2022-08-20T06:54:38;96941.00;;;21.49;63.72
49515;BME280;35415;47.870;16.058;2022-08-20T06:57:05;96952.50;;;21.54;62.95
49515;BME280;35415;47.870;16.058;2022-08-20T06:59:33;96948.28;;;21.57;63.05
49515;BME280;35415;47.870;16.058;2022-08-20T07:02:03;96948.72;;;21.59;63.78
49515;BME280;35415;47.870;16.058;2022-08-20T07:04:30;96939.72;;;21.58;62.79
49515;BME280;35415;47.870;16.058;2022-08-20T07:06:57;96952.47;;;21.67;62.49
49515;BME280;35415;47.870;16.058;2022-08-20T07:09:26;96945.16;;;21.71;62.55
49515;BME280;35415;47.870;16.058;2022-08-20T07:11:53;96937.97;;;21.66;62.58
49515;BME280;35415;47.870;16.058;2022-08-20T07:14:21;96951.97;;;21.77;62.00
49515;BME280;35415;47.870;16.058;2022-08-20T07:16:48;96944.22;;;21.79;61.51
49515;BME280;35415;47.870;16.058;2022-08-20T07:19:16;96931.31;;;21.79;61.27
49515;BME280;35415;47.870;16.058;2022-08-20T07:21:43;96931.75;;;21.81;61.28
49515;BME280;35415;47.870;16.058;2022-08-20T07:24:12;96942.13;;;21.88;61.32
49515;BME280;35415;47.870;16.058;2022-08-20T07:26:39;96944.97;;;21.91;61.58
49515;BME280;35415;47.870;16.058;2022-08-20T07:29:06;96943.72;;;21.89;61.26
49515;BME280;35415;47.870;16.058;2022-08-20T07:31:33;96944.72;;;21.97;61.41
49515;BME280;35415;47.870;16.058;2022-08-20T07:34:19;96943.22;;;21.99;60.84
49515;BME280;35415;47.870;16.058;2022-08-20T07:36:46;96942.97;;;22.04;61.08
49515;BME280;35415;47.870;16.058;2022-08-20T07:39:14;96945.03;;;22.07;60.71
49515;BME280;35415;47.870;16.058;2022-08-20T07:41:41;96942.47;;;22.14;60.66
49515;BME280;35415;47.870;16.058;2022-08-20T07:44:08;96945.44;;;22.21;60.37
49515;BME280;35415;47.870;16.058;2022-08-20T07:46:35;96938.09;;;22.26;60.65
49515;BME280;35415;47.870;16.058;2022-08-20T07:49:02;96945.81;;;22.36;59.87
49515;BME280;35415;47.870;16.058;2022-08-20T07:51:35;96943.25;;;22.43;59.71
49515;BME280;35415;47.870;16.058;2022-08-20T07:54:02;96948.09;;;22.49;59.19
49515;BME280;35415;47.870;16.058;2022-08-20T07:56:30;96938.28;;;22.48;59.39
49515;BME280;35415;47.870;16.058;2022-08-20T07:58:58;96947.22;;;22.61;59.63
49515;BME280;35415;47.870;16.058;2022-08-20T08:01:28;96946.53;;;22.64;59.16
49515;BME280;35415;47.870;16.058;2022-08-20T08:03:55;96949.38;;;22.68;59.34
49515;BME280;35415;47.870;16.058;2022-08-20T08:06:24;96936.09;;;22.70;58.90
49515;BME280;35415;47.870;16.058;2022-08-20T08:08:53;96955.78;;;22.88;58.84
49515;BME280;35415;47.870;16.058;2022-08-20T08:11:21;96955.94;;;22.95;58.08
49515;BME280;35415;47.870;16.058;2022-08-20T08:13:48;96969.03;;;23.01;57.53
49515;BME280;35415;47.870;16.058;2022-08-20T08:16:16;96959.28;;;23.04;57.50
49515;BME280;35415;47.870;16.058;2022-08-20T08:18:46;96955.63;;;23.16;56.34
49515;BME280;35415;47.870;16.058;2022-08-20T08:21:15;96954.22;;;23.22;56.52
49515;BME280;35415;47.870;16.058;2022-08-20T08:23:43;96962.16;;;23.27;56.71
49515;BME280;35415;47.870;16.058;2022-08-20T08:26:13;96955.28;;;23.17;56.21
49515;BME280;35415;47.870;16.058;2022-08-20T08:28:41;96957.28;;;23.36;55.56
49515;BME280;35415;47.870;16.058;2022-08-20T08:31:09;96962.84;;;23.39;55.38
49515;BME280;35415;47.870;16.058;2022-08-20T08:33:37;96948.41;;;23.42;55.60
49515;BME280;35415;47.870;16.058;2022-08-20T08:36:08;96953.09;;;23.42;55.35
49515;BME280;35415;47.870;16.058;2022-08-20T08:38:38;96950.06;;;23.47;55.90
49515;BME280;35415;47.870;16.058;2022-08-20T08:41:10;96957.25;;;23.52;54.96
49515;BME280;35415;47.870;16.058;2022-08-20T08:43:43;96961.66;;;23.56;55.22
49515;BME280;35415;47.870;16.058;2022-08-20T08:46:15;96954.31;;;23.60;54.80
49515;BME280;35415;47.870;16.058;2022-08-20T08:48:44;96965.91;;;23.69;54.53
49515;BME280;35415;47.870;16.058;2022-08-20T08:51:14;96958.53;;;23.74;53.74
49515;BME280;35415;47.870;16.058;2022-08-20T08:53:44;96951.56;;;23.80;54.40
49515;BME280;35415;47.870;16.058;2022-08-20T08:56:14;96953.22;;;23.84;54.26
49515;BME280;35415;47.870;16.058;2022-08-20T08:58:42;96948.69;;;23.92;53.97
49515;BME280;35415;47.870;16.058;2022-08-20T09:01:12;96952.38;;;23.99;53.62
49515;BME280;35415;47.870;16.058;2022-08-20T09:03:41;96950.13;;;24.05;53.52
49515;BME280;35415;47.870;16.058;2022-08-20T09:06:13;96934.72;;;24.00;53.70
49515;BME280;35415;47.870;16.058;2022-08-20T09:08:46;96956.34;;;24.21;53.88
49515;BME280;35415;47.870;16.058;2022-08-20T09:11:14;96966.66;;;24.28;52.74
49515;BME280;35415;47.870;16.058;2022-08-20T09:13:43;96955.81;;;24.35;52.72
49515;BME280;35415;47.870;16.058;2022-08-20T09:16:10;96950.03;;;24.40;52.26
49515;BME280;35415;47.870;16.058;2022-08-20T09:18:38;96940.22;;;24.39;51.80
49515;BME280;35415;47.870;16.058;2022-08-20T09:21:07;96960.16;;;24.55;51.78
49515;BME280;35415;47.870;16.058;2022-08-20T09:23:35;96959.88;;;24.64;52.08
49515;BME280;35415;47.870;16.058;2022-08-20T09:26:03;96949.81;;;24.72;51.92
49515;BME280;35415;47.870;16.058;2022-08-20T09:28:31;96942.03;;;24.77;51.68
49515;BME280;35415;47.870;16.058;2022-08-20T09:30:59;96941.31;;;24.80;50.71
49515;BME280;35415;47.870;16.058;2022-08-20T09:33:26;96944.59;;;24.89;50.58
49515;BME280;35415;47.870;16.058;2022-08-20T09:35:53;96943.19;;;24.99;50.84
49515;BME280;35415;47.870;16.058;2022-08-20T09:38:20;96948.03;;;25.06;50.05
49515;BME280;35415;47.870;16.058;2022-08-20T09:40:47;96947.72;;;25.11;50.40
49515;BME280;35415;47.870;16.058;2022-08-20T09:43:14;96961.56;;;25.18;49.42
49515;BME280;35415;47.870;16.058;2022-08-20T09:45:41;96956.94;;;25.22;48.52
49515;BME280;35415;47.870;16.058;2022-08-20T09:48:09;96945.66;;;25.31;49.77
49515;BME280;35415;47.870;16.058;2022-08-20T09:50:40;96954.41;;;25.36;49.50
49515;BME280;35415;47.870;16.058;2022-08-20T09:53:09;96953.28;;;25.41;48.63
49515;BME280;35415;47.870;16.058;2022-08-20T09:55:38;96956.06;;;25.44;48.31
49515;BME280;35415;47.870;16.058;2022-08-20T09:58:08;96930.41;;;25.37;48.23
49515;BME280;35415;47.870;16.058;2022-08-20T10:00:38;96942.78;;;25.50;48.62
49515;BME280;35415;47.870;16.058;2022-08-20T10:03:06;96946.75;;;25.53;48.73
49515;BME280;35415;47.870;16.058;2022-08-20T10:05:34;96965.28;;;25.56;48.45
49515;BME280;35415;47.870;16.058;2022-08-20T10:08:04;96933.69;;;25.46;48.20
49515;BME280;35415;47.870;16.058;2022-08-20T10:10:31;96946.81;;;25.56;48.86
49515;BME280;35415;47.870;16.058;2022-08-20T10:12:58;96940.50;;;25.56;48.63
49515;BME280;35415;47.870;16.058;2022-08-20T10:15:25;96955.88;;;25.57;48.12
49515;BME280;35415;47.870;16.058;2022-08-20T10:17:52;96939.09;;;25.39;47.90
49515;BME280;35415;47.870;16.058;2022-08-20T10:20:21;96965.59;;;25.50;48.22
49515;BME280;35415;47.870;16.058;2022-08-20T10:22:50;96955.75;;;25.49;48.40
49515;BME280;35415;47.870;16.058;2022-08-20T10:25:18;96966.75;;;25.49;48.13
49515;BME280;35415;47.870;16.058;2022-08-20T10:27:45;96962.38;;;25.45;48.74
49515;BME280;35415;47.870;16.058;2022-08-20T10:30:12;96960.00;;;25.43;48.98
49515;BME280;35415;47.870;16.058;2022-08-20T10:32:39;96956.88;;;25.45;49.08
49515;BME280;35415;47.870;16.058;2022-08-20T10:35:07;96966.31;;;25.44;48.91
49515;BME280;35415;47.870;16.058;2022-08-20T10:37:34;96948.72;;;25.26;49.25
49515;BME280;35415;47.870;16.058;2022-08-20T10:40:05;96971.72;;;25.37;49.56
49515;BME280;35415;47.870;16.058;2022-08-20T10:42:32;96979.91;;;25.33;49.57
49515;BME280;35415;47.870;16.058;2022-08-20T10:44:59;96972.34;;;25.27;50.03
49515;BME280;35415;47.870;16.058;2022-08-20T10:47:29;96979.47;;;25.31;50.34
49515;BME280;35415;47.870;16.058;2022-08-20T10:49:58;96982.19;;;25.28;50.04
49515;BME280;35415;47.870;16.058;2022-08-20T10:52:26;96971.91;;;25.25;49.93
49515;BME280;35415;47.870;16.058;2022-08-20T10:54:54;96966.78;;;25.23;49.66
49515;BME280;35415;47.870;16.058;2022-08-20T10:57:24;96946.19;;;25.13;50.11
49515;BME280;35415;47.870;16.058;2022-08-20T10:59:53;96959.69;;;25.22;50.07
49515;BME280;35415;47.870;16.058;2022-08-20T11:02:21;96964.78;;;25.20;49.92
49515;BME280;35415;47.870;16.058;2022-08-20T11:04:49;96961.94;;;25.16;49.41
49515;BME280;35415;47.870;16.058;2022-08-20T11:07:19;96966.25;;;25.14;49.79
49515;BME280;35415;47.870;16.058;2022-08-20T11:09:47;96963.06;;;25.12;49.76
49515;BME280;35415;47.870;16.058;2022-08-20T11:12:15;96957.09;;;25.06;50.09
49515;BME280;35415;47.870;16.058;2022-08-20T11:14:45;96964.97;;;25.08;49.55
49515;BME280;35415;47.870;16.058;2022-08-20T11:17:18;96958.72;;;25.11;50.05
49515;BME280;35415;47.870;16.058;2022-08-20T11:19:45;96963.03;;;25.08;50.19
49515;BME280;35415;47.870;16.058;2022-08-20T11:22:13;96968.94;;;25.10;50.26
49515;BME280;35415;47.870;16.058;2022-08-20T11:24:40;96955.09;;;25.03;49.50
49515;BME280;35415;47.870;16.058;2022-08-20T11:27:08;96958.69;;;25.07;49.72
49515;BME280;35415;47.870;16.058;2022-08-20T11:29:37;96959.41;;;25.04;49.11
49515;BME280;35415;47.870;16.058;2022-08-20T11:32:05;96969.63;;;25.04;49.45
49515;BME280;35415;47.870;16.058;2022-08-20T11:34:32;96954.19;;;24.99;49.04
49515;BME280;35415;47.870;16.058;2022-08-20T11:36:59;96965.56;;;24.98;49.43
49515;BME280;35415;47.870;16.058;2022-08-20T11:39:27;96969.47;;;24.97;49.21
49515;BME280;35415;47.870;16.058;2022-08-20T11:41:54;96963.91;;;24.93;50.04
49515;BME280;35415;47.870;16.058;2022-08-20T11:44:21;96969.78;;;24.92;48.90
49515;BME280;35415;47.870;16.058;2022-08-20T11:46:49;96972.13;;;24.89;49.46
49515;BME280;35415;47.870;16.058;2022-08-20T11:49:18;96983.06;;;24.86;48.97
49515;BME280;35415;47.870;16.058;2022-08-20T11:51:45;96980.59;;;24.81;49.37
49515;BME280;35415;47.870;16.058;2022-08-20T11:54:12;96984.53;;;24.80;49.17
49515;BME280;35415;47.870;16.058;2022-08-20T11:56:42;96993.19;;;24.82;49.58
49515;BME280;35415;47.870;16.058;2022-08-20T11:59:09;96991.97;;;24.79;49.17
49515;BME280;35415;47.870;16.058;2022-08-20T12:01:36;96997.53;;;24.83;49.62
49515;BME280;35415;47.870;16.058;2022-08-20T12:04:03;97013.25;;;24.82;49.63
49515;BME280;35415;47.870;16.058;2022-08-20T12:06:32;97017.16;;;24.81;49.43
49515;BME280;35415;47.870;16.058;2022-08-20T12:08:59;97029.75;;;24.82;49.23
49515;BME280;35415;47.870;16.058;2022-08-20T12:11:26;97020.28;;;24.80;49.08
49515;BME280;35415;47.870;16.058;2022-08-20T12:13:54;97048.16;;;24.78;48.97
49515;BME280;35415;47.870;16.058;2022-08-20T12:16:21;97040.22;;;24.73;49.61
49515;BME280;35415;47.870;16.058;2022-08-20T12:18:48;97033.34;;;24.64;49.11
49515;BME280;35415;47.870;16.058;2022-08-20T12:21:15;97041.91;;;24.58;49.69
49515;BME280;35415;47.870;16.058;2022-08-20T12:23:44;97038.66;;;24.53;49.81
49515;BME280;35415;47.870;16.058;2022-08-20T12:26:12;97040.16;;;24.50;50.36
49515;BME280;35415;47.870;16.058;2022-08-20T12:28:41;97042.78;;;24.43;50.36
49515;BME280;35415;47.870;16.058;2022-08-20T12:31:08;97037.59;;;24.38;50.48
49515;BME280;35415;47.870;16.058;2022-08-20T12:33:35;97050.19;;;24.39;50.78
49515;BME280;35415;47.870;16.058;2022-08-20T12:36:03;97048.66;;;24.42;51.34
49515;BME280;35415;47.870;16.058;2022-08-20T12:38:30;97041.13;;;24.39;50.95
49515;BME280;35415;47.870;16.058;2022-08-20T12:40:59;97032.09;;;24.38;50.92
49515;BME280;35415;47.870;16.058;2022-08-20T12:43:27;97027.38;;;24.39;50.07
49515;BME280;35415;47.870;16.058;2022-08-20T12:45:54;97010.56;;;24.24;50.26
49515;BME280;35415;47.870;16.058;2022-08-20T12:48:21;97022.25;;;24.37;50.54
49515;BME280;35415;47.870;16.058;2022-08-20T12:50:49;97029.25;;;24.35;50.46
49515;BME280;35415;47.870;16.058;2022-08-20T12:53:17;97027.28;;;24.35;50.12
49515;BME280;35415;47.870;16.058;2022-08-20T12:55:44;97023.47;;;24.40;49.87
49515;BME280;35415;47.870;16.058;2022-08-20T12:58:13;97013.13;;;24.33;50.02